createdAt,value
2022-10-07T00:00:46.323Z,102254.06
2022-10-07T00:03:13.195Z,102268.53
2022-10-07T00:05:40.000Z,102257.78
2022-10-07T00:08:07.161Z,102249.88
2022-10-07T00:10:41.499Z,102240.72
2022-10-07T00:13:09.906Z,102237.72
2022-10-07T00:15:36.805Z,102235.28
2022-10-07T00:18:03.669Z,102225.16
2022-10-07T00:20:38.242Z,102226.91
2022-10-07T00:23:05.750Z,102226.41
2022-10-07T00:25:35.721Z,102226.41
2022-10-07T00:28:03.471Z,102219.56
2022-10-07T00:30:30.295Z,102219.09
2022-10-07T00:32:57.057Z,102214.97
2022-10-07T00:35:24.020Z,102206.78
2022-10-07T00:37:53.857Z,102202.47
2022-10-07T00:40:20.683Z,102214.84
2022-10-07T00:42:47.414Z,102215.22
2022-10-07T00:45:16.858Z,102211.53
2022-10-07T00:47:49.036Z,102210.63
2022-10-07T00:50:25.369Z,102210.63
2022-10-07T00:52:54.788Z,102207.97
2022-10-07T00:55:24.135Z,102207.41
2022-10-07T00:57:53.396Z,102206.72
2022-10-07T01:00:23.525Z,102210.81
2022-10-07T01:02:51.084Z,102210.00
2022-10-07T01:05:18.516Z,102211.00
2022-10-07T01:07:47.431Z,102214.72
2022-10-07T01:10:18.790Z,102200.75
2022-10-07T01:12:48.417Z,102201.41
2022-10-07T01:15:53.994Z,102201.09
2022-10-07T01:18:26.515Z,102207.84
2022-10-07T01:20:57.958Z,102199.16
2022-10-07T01:23:40.458Z,102198.09
2022-10-07T01:26:34.618Z,102198.63
2022-10-07T01:29:05.083Z,102198.97
2022-10-07T01:31:37.873Z,102196.78
2022-10-07T01:34:06.314Z,102194.09
2022-10-07T01:36:34.417Z,102191.25
2022-10-07T01:39:03.678Z,102200.31
2022-10-07T01:41:31.574Z,102190.91
2022-10-07T01:43:59.664Z,102190.91
2022-10-07T01:46:27.671Z,102200.38
2022-10-07T01:49:02.027Z,102189.66
2022-10-07T01:51:30.239Z,102202.44
2022-10-07T01:53:56.717Z,102191.09
2022-10-07T01:56:51.958Z,102192.69
2022-10-07T01:59:50.617Z,102174.25
2022-10-07T02:02:41.592Z,102175.94
2022-10-07T02:05:27.238Z,102166.78
2022-10-07T02:08:15.517Z,102163.84
2022-10-07T02:11:04.646Z,102164.31
2022-10-07T02:13:39.407Z,102160.28
2022-10-07T02:16:21.709Z,102161.19
2022-10-07T02:18:52.262Z,102159.28
2022-10-07T02:21:22.764Z,102162.00
2022-10-07T02:23:53.208Z,102170.13
2022-10-07T02:26:21.613Z,102163.38
2022-10-07T02:28:52.016Z,102155.78
2022-10-07T02:31:23.611Z,102153.25
2022-10-07T02:33:53.237Z,102148.56
2022-10-07T02:36:25.379Z,102144.09
2022-10-07T02:38:52.718Z,102142.00
2022-10-07T02:41:36.664Z,102157.91
2022-10-07T02:44:29.751Z,102156.50
2022-10-07T02:47:01.478Z,102176.75
2022-10-07T02:49:29.239Z,102172.88
2022-10-07T02:52:08.247Z,102177.09
2022-10-07T02:54:39.646Z,102185.91
2022-10-07T02:57:06.864Z,102181.00
2022-10-07T02:59:34.338Z,102182.94
2022-10-07T03:02:02.885Z,102184.75
2022-10-07T03:04:29.709Z,102180.34
2022-10-07T03:06:58.777Z,102172.75
2022-10-07T03:09:25.963Z,102178.34
2022-10-07T03:11:52.624Z,102179.75
2022-10-07T03:14:19.348Z,102186.91
2022-10-07T03:16:46.384Z,102191.06
2022-10-07T03:19:12.994Z,102184.31
2022-10-07T03:21:43.308Z,102177.81
2022-10-07T03:24:11.378Z,102178.09
2022-10-07T03:26:43.222Z,102173.28
2022-10-07T03:29:12.043Z,102164.34
2022-10-07T03:31:41.267Z,102158.06
2022-10-07T03:34:09.693Z,102142.34
2022-10-07T03:36:36.926Z,102138.50
2022-10-07T03:39:05.334Z,102138.13
2022-10-07T03:41:33.304Z,102122.34
2022-10-07T03:44:01.618Z,102126.44
2022-10-07T03:46:31.964Z,102121.81
2022-10-07T03:48:58.688Z,102118.63
2022-10-07T03:51:26.102Z,102114.88
2022-10-07T03:53:58.394Z,102116.13
2022-10-07T03:56:29.383Z,102111.13
2022-10-07T03:58:56.094Z,102114.53
2022-10-07T04:01:24.243Z,102111.13
2022-10-07T04:03:55.803Z,102110.41
2022-10-07T04:06:23.384Z,102104.13
2022-10-07T04:08:55.327Z,102100.47
2022-10-07T04:11:24.373Z,102106.56
2022-10-07T04:13:53.726Z,102096.97
2022-10-07T04:16:23.247Z,102098.78
2022-10-07T04:18:54.711Z,102099.63
2022-10-07T04:21:21.812Z,102098.13
2022-10-07T04:23:48.502Z,102088.53
2022-10-07T04:26:15.329Z,102083.13
2022-10-07T04:28:46.098Z,102082.16
2022-10-07T04:31:17.949Z,102085.75
2022-10-07T04:33:47.412Z,102083.84
2022-10-07T04:36:19.874Z,102073.63
2022-10-07T04:39:01.106Z,102077.09
2022-10-07T04:41:32.122Z,102072.44
2022-10-07T04:43:59.664Z,102070.16
2022-10-07T04:46:30.715Z,102069.72
2022-10-07T04:49:03.766Z,102063.94
2022-10-07T04:51:31.157Z,102067.75
2022-10-07T04:53:59.441Z,102071.28
2022-10-07T04:56:33.304Z,102071.91
2022-10-07T04:59:02.331Z,102072.59
2022-10-07T05:01:29.625Z,102082.09
2022-10-07T05:03:58.013Z,102083.44
2022-10-07T05:06:26.210Z,102086.78
2022-10-07T05:08:54.269Z,102094.38
2022-10-07T05:11:22.232Z,102098.28
2022-10-07T05:13:58.389Z,102105.69
2022-10-07T05:16:25.907Z,102107.69
2022-10-07T05:18:52.584Z,102124.09
2022-10-07T05:21:19.232Z,102123.38
2022-10-07T05:23:47.622Z,102127.28
2022-10-07T05:26:19.706Z,102135.88
2022-10-07T05:28:50.819Z,102142.03
2022-10-07T05:31:25.864Z,102142.66
2022-10-07T05:33:56.415Z,102137.75
2022-10-07T05:36:24.971Z,102145.59
2022-10-07T05:38:58.082Z,102142.63
2022-10-07T05:41:29.728Z,102145.72
2022-10-07T05:43:57.388Z,102148.97
2022-10-07T05:46:25.272Z,102154.75
2022-10-07T05:48:55.836Z,102167.53
2022-10-07T05:51:26.708Z,102169.81
2022-10-07T05:53:58.498Z,102177.66
2022-10-07T05:56:32.302Z,102170.41
2022-10-07T05:58:59.242Z,102162.34
2022-10-07T06:01:28.429Z,102156.44
2022-10-07T06:03:57.331Z,102155.91
2022-10-07T06:06:26.687Z,102149.19
2022-10-07T06:09:16.056Z,102164.25
2022-10-07T06:12:04.031Z,102156.94
2022-10-07T06:14:32.340Z,102151.75
2022-10-07T06:17:00.259Z,102149.41
2022-10-07T06:19:27.631Z,102126.84
2022-10-07T06:21:58.220Z,102122.50
2022-10-07T06:24:25.391Z,102102.31
2022-10-07T06:26:55.357Z,102086.84
2022-10-07T06:29:23.605Z,102082.50
2022-10-07T06:31:55.093Z,102059.75
2022-10-07T06:34:21.775Z,102044.69
2022-10-07T06:36:50.887Z,102021.75
2022-10-07T06:39:18.048Z,102002.06
2022-10-07T06:41:46.815Z,101986.97
2022-10-07T06:44:36.555Z,101956.53
2022-10-07T06:47:06.661Z,101933.19
2022-10-07T06:49:36.549Z,101906.00
2022-10-07T06:52:03.250Z,101879.44
2022-10-07T06:54:31.124Z,101852.94
2022-10-07T06:56:57.999Z,101837.03
2022-10-07T06:59:24.667Z,101816.66
2022-10-07T07:02:07.018Z,101800.69
2022-10-07T07:04:34.689Z,101781.88
2022-10-07T07:07:02.260Z,101754.81
2022-10-07T07:09:29.351Z,101737.47
2022-10-07T07:11:56.561Z,101714.75
2022-10-07T07:14:27.339Z,101707.06
2022-10-07T07:17:02.334Z,101686.00
2022-10-07T07:19:30.109Z,101679.38
2022-10-07T07:21:57.065Z,101669.34
2022-10-07T07:24:31.893Z,101659.84
2022-10-07T07:26:59.021Z,101641.28
2022-10-07T07:29:28.964Z,101624.75
2022-10-07T07:32:00.209Z,101619.59
2022-10-07T07:34:30.271Z,101614.06
2022-10-07T07:36:57.355Z,101607.03
2022-10-07T07:39:31.443Z,101593.63
2022-10-07T07:42:08.774Z,101583.44
2022-10-07T07:44:37.707Z,101573.91
2022-10-07T07:47:08.685Z,101572.91
2022-10-07T07:49:36.062Z,101567.03
2022-10-07T07:52:04.226Z,101557.16
2022-10-07T07:54:37.582Z,101550.44
2022-10-07T07:57:04.529Z,101539.56
2022-10-07T07:59:34.215Z,101542.00
2022-10-07T08:02:01.231Z,101527.47
2022-10-07T08:04:29.497Z,101523.41
2022-10-07T08:06:56.553Z,101527.22
2022-10-07T08:09:24.456Z,101518.00
2022-10-07T08:11:52.550Z,101517.66
2022-10-07T08:14:19.282Z,101508.72
2022-10-07T08:16:49.511Z,101503.47
2022-10-07T08:19:16.192Z,101512.00
2022-10-07T08:21:42.851Z,101513.78
2022-10-07T08:24:14.834Z,101514.78
2022-10-07T08:26:41.591Z,101498.66
2022-10-07T08:29:11.869Z,101498.66
2022-10-07T08:31:38.637Z,101506.34
2022-10-07T08:34:06.409Z,101509.22
2022-10-07T08:36:33.743Z,101507.25
2022-10-07T08:39:01.729Z,101504.94
2022-10-07T08:41:34.273Z,101513.75
2022-10-07T08:44:17.030Z,101504.84
2022-10-07T08:47:01.120Z,101480.03
2022-10-07T08:49:43.476Z,101461.03
2022-10-07T08:52:28.347Z,101447.25
2022-10-07T08:54:55.231Z,101426.13
2022-10-07T08:58:06.625Z,101413.34
2022-10-07T09:00:50.675Z,101407.59
2022-10-07T09:03:25.367Z,101403.72
2022-10-07T09:05:53.132Z,101385.69
2022-10-07T09:08:30.870Z,101368.56
2022-10-07T09:11:04.561Z,101352.56
2022-10-07T09:13:35.799Z,101350.50
2022-10-07T09:16:13.269Z,101345.63
2022-10-07T09:18:50.706Z,101334.97
2022-10-07T09:21:23.643Z,101331.06
2022-10-07T09:23:57.680Z,101321.53
2022-10-07T09:26:26.455Z,101332.75
2022-10-07T09:28:53.052Z,101340.19
2022-10-07T09:31:22.494Z,101330.47
2022-10-07T09:33:50.564Z,101318.78
2022-10-07T09:36:19.012Z,101312.06
2022-10-07T09:38:50.335Z,101299.25
2022-10-07T09:41:16.876Z,101283.84
2022-10-07T09:43:49.473Z,101281.44
2022-10-07T09:46:47.782Z,101268.84
2022-10-07T09:49:29.867Z,101255.44
2022-10-07T09:52:07.116Z,101247.38
2022-10-07T09:54:35.500Z,101240.09
2022-10-07T09:57:04.309Z,101227.69
2022-10-07T09:59:35.748Z,101221.91
2022-10-07T10:02:18.055Z,101213.34
2022-10-07T10:04:56.155Z,101204.19
2022-10-07T10:07:28.244Z,101193.69
2022-10-07T10:09:57.148Z,101181.94
2022-10-07T10:12:25.626Z,101169.53
2022-10-07T10:14:53.162Z,101167.03
2022-10-07T10:17:42.458Z,101157.97
2022-10-07T10:20:24.271Z,101151.53
2022-10-07T10:22:52.089Z,101144.06
2022-10-07T10:26:17.760Z,101135.41
2022-10-07T10:28:58.594Z,101132.72
2022-10-07T10:31:53.509Z,101117.78
2022-10-07T10:34:39.240Z,101122.34
2022-10-07T10:37:14.754Z,101119.41
2022-10-07T10:39:57.617Z,101108.38
2022-10-07T10:42:45.453Z,101111.94
2022-10-07T10:45:18.290Z,101096.16
2022-10-07T10:48:01.230Z,101106.75
2022-10-07T10:50:32.424Z,101094.94
2022-10-07T10:53:29.380Z,101072.94
2022-10-07T10:56:17.385Z,101086.41
2022-10-07T10:59:09.371Z,101076.16
2022-10-07T11:01:39.052Z,101066.75
2022-10-07T11:04:08.569Z,101045.28
2022-10-07T11:06:37.467Z,101044.09
2022-10-07T11:09:05.904Z,101041.41
2022-10-07T11:11:34.109Z,101054.34
2022-10-07T11:14:09.435Z,101039.34
2022-10-07T11:16:48.592Z,101040.91
2022-10-07T11:19:22.138Z,101034.22
2022-10-07T11:21:51.005Z,101022.38
2022-10-07T11:24:20.902Z,101021.78
2022-10-07T11:26:51.435Z,101017.03
2022-10-07T11:29:39.885Z,101011.53
2022-10-07T11:32:23.139Z,101001.38
2022-10-07T11:35:17.931Z,101000.31
2022-10-07T11:37:52.654Z,100980.91
2022-10-07T11:40:19.874Z,100978.97
2022-10-07T11:42:49.959Z,100991.03
2022-10-07T11:45:20.476Z,100973.91
2022-10-07T11:47:50.813Z,100969.16
2022-10-07T11:50:23.826Z,100968.66
2022-10-07T11:52:53.770Z,100967.31
2022-10-07T11:55:24.838Z,100961.56
2022-10-07T11:57:59.025Z,100948.94
2022-10-07T12:00:29.792Z,100952.28
2022-10-07T12:02:57.826Z,100942.78
2022-10-07T12:05:50.139Z,100932.22
2022-10-07T12:08:33.279Z,100939.16
2022-10-07T12:11:15.549Z,100927.34
2022-10-07T12:13:53.117Z,100920.81
2022-10-07T12:16:30.129Z,100920.19
2022-10-07T12:19:12.810Z,100927.53
2022-10-07T12:22:00.581Z,100913.44
2022-10-07T12:24:28.099Z,100914.47
2022-10-07T12:27:25.844Z,100909.94
2022-10-07T12:30:02.422Z,100900.88
2022-10-07T12:32:45.461Z,100906.94
2022-10-07T12:35:34.609Z,100888.47
2022-10-07T12:38:23.497Z,100892.72
2022-10-07T12:41:10.804Z,100880.97
2022-10-07T12:43:37.389Z,100882.78
2022-10-07T12:46:06.490Z,100879.81
2022-10-07T12:48:40.134Z,100879.63
2022-10-07T12:51:19.280Z,100867.72
2022-10-07T12:53:47.627Z,100867.44
2022-10-07T12:56:21.385Z,100869.03
2022-10-07T12:59:28.601Z,100854.97
2022-10-07T13:02:01.329Z,100870.81
2022-10-07T13:05:09.789Z,100851.09
2022-10-07T13:08:00.982Z,100839.63
2022-10-07T13:10:48.182Z,100836.69
2022-10-07T13:13:26.236Z,100832.47
2022-10-07T13:16:10.899Z,100827.38
2022-10-07T13:18:54.905Z,100836.75
2022-10-07T13:21:32.429Z,100832.81
2022-10-07T13:23:59.073Z,100827.06
2022-10-07T13:26:26.795Z,100821.84
2022-10-07T13:29:00.334Z,100823.56
2022-10-07T13:31:32.779Z,100814.59
2022-10-07T13:34:01.230Z,100817.56
2022-10-07T13:36:29.718Z,100811.28
2022-10-07T13:39:18.024Z,100808.72
2022-10-07T13:41:47.480Z,100795.97
2022-10-07T13:44:18.556Z,100791.06
2022-10-07T13:46:58.099Z,100795.09
2022-10-07T13:49:27.839Z,100780.22
2022-10-07T13:51:59.465Z,100776.63
2022-10-07T13:54:28.418Z,100778.72
2022-10-07T13:56:55.394Z,100779.78
2022-10-07T13:59:22.595Z,100774.03
2022-10-07T14:01:52.012Z,100771.19
2022-10-07T14:04:31.261Z,100752.03
2022-10-07T14:07:13.034Z,100751.59
2022-10-07T14:09:44.562Z,100762.16
2022-10-07T14:12:17.256Z,100754.56
2022-10-07T14:14:46.471Z,100733.19
2022-10-07T14:17:26.374Z,100734.84
2022-10-07T14:19:55.649Z,100734.97
2022-10-07T14:22:36.735Z,100730.78
2022-10-07T14:25:06.039Z,100726.97
2022-10-07T14:27:39.892Z,100724.63
2022-10-07T14:30:55.584Z,100721.03
2022-10-07T14:34:04.665Z,100718.91
2022-10-07T14:36:31.333Z,100721.34
2022-10-07T14:39:03.296Z,100722.13
2022-10-07T14:41:31.146Z,100719.72
2022-10-07T14:44:00.126Z,100718.00
2022-10-07T14:46:28.375Z,100706.63
2022-10-07T14:48:55.277Z,100710.50
2022-10-07T14:51:27.004Z,100711.25
2022-10-07T14:53:56.912Z,100706.66
2022-10-07T14:56:31.335Z,100690.22
2022-10-07T14:58:58.004Z,100698.25
2022-10-07T15:01:25.460Z,100705.59
2022-10-07T15:03:52.773Z,100695.06
2022-10-07T15:06:20.214Z,100689.41
2022-10-07T15:08:49.548Z,100687.78
2022-10-07T15:11:18.639Z,100685.31
2022-10-07T15:13:49.285Z,100672.28
2022-10-07T15:16:21.805Z,100672.28
2022-10-07T15:18:52.439Z,100666.38
2022-10-07T15:21:20.972Z,100667.94
2022-10-07T15:23:54.021Z,100671.88
2022-10-07T15:26:24.202Z,100662.69
2022-10-07T15:29:01.807Z,100662.44
2022-10-07T15:31:30.089Z,100670.59
2022-10-07T15:33:57.823Z,100677.53
2022-10-07T15:36:26.334Z,100673.91
2022-10-07T15:38:55.861Z,100672.38
2022-10-07T15:41:48.949Z,100663.72
2022-10-07T15:44:18.271Z,100660.19
2022-10-07T15:46:46.306Z,100658.53
2022-10-07T15:49:13.406Z,100650.69
2022-10-07T15:51:40.239Z,100661.69
2022-10-07T15:54:07.011Z,100657.63
2022-10-07T15:56:34.187Z,100664.31
2022-10-07T15:59:02.138Z,100664.31
2022-10-07T16:01:31.959Z,100676.03
2022-10-07T16:04:00.346Z,100675.47
2022-10-07T16:06:31.379Z,100690.00
2022-10-07T16:09:01.626Z,100709.47
2022-10-07T16:11:29.171Z,100708.88
2022-10-07T16:13:55.992Z,100721.06
2022-10-07T16:16:24.933Z,100730.97
2022-10-07T16:18:53.638Z,100744.19
2022-10-07T16:21:27.911Z,100748.13
2022-10-07T16:24:23.466Z,100758.06
2022-10-07T16:26:50.770Z,100753.31
2022-10-07T16:29:38.588Z,100757.41
2022-10-07T16:32:06.099Z,100759.44
2022-10-07T16:34:32.677Z,100775.94
2022-10-07T16:36:59.348Z,100777.50
2022-10-07T16:39:26.105Z,100793.94
2022-10-07T16:41:53.001Z,100804.56
2022-10-07T16:44:20.186Z,100817.03
2022-10-07T16:46:47.651Z,100833.09
2022-10-07T16:49:16.763Z,100850.00
2022-10-07T16:51:44.731Z,100858.44
2022-10-07T16:54:14.698Z,100879.00
2022-10-07T16:56:46.497Z,100886.53
2022-10-07T16:59:16.456Z,100912.72
2022-10-07T17:01:46.911Z,100928.69
2022-10-07T17:04:13.598Z,100944.00
2022-10-07T17:06:40.318Z,100936.53
2022-10-07T17:09:09.561Z,100947.09
2022-10-07T17:11:37.182Z,100970.81
2022-10-07T17:14:07.322Z,100980.72
2022-10-07T17:16:39.657Z,101016.47
2022-10-07T17:19:07.048Z,101023.78
2022-10-07T17:21:36.150Z,101043.91
2022-10-07T17:24:03.527Z,101069.25
2022-10-07T17:26:32.107Z,101091.59
2022-10-07T17:29:02.233Z,101099.00
2022-10-07T17:31:30.373Z,101113.78
2022-10-07T17:33:57.925Z,101122.28
2022-10-07T17:36:25.591Z,101129.41
2022-10-07T17:38:52.216Z,101142.44
2022-10-07T17:41:26.967Z,101161.03
2022-10-07T17:43:55.955Z,101164.59
2022-10-07T17:46:23.836Z,101174.44
2022-10-07T17:48:52.765Z,101184.47
2022-10-07T17:51:20.802Z,101185.50
2022-10-07T17:53:50.396Z,101187.75
2022-10-07T17:56:17.520Z,101192.16
2022-10-07T17:58:46.212Z,101195.13
2022-10-07T18:01:27.012Z,101198.38
2022-10-07T18:03:58.731Z,101212.88
2022-10-07T18:06:31.506Z,101215.78
2022-10-07T18:09:04.431Z,101221.88
2022-10-07T18:11:50.463Z,101228.44
2022-10-07T18:14:35.828Z,101234.09
2022-10-07T18:17:02.574Z,101236.63
2022-10-07T18:19:29.660Z,101240.81
2022-10-07T18:21:56.836Z,101245.19
2022-10-07T18:24:27.619Z,101249.94
2022-10-07T18:26:59.384Z,101249.94
2022-10-07T18:29:31.536Z,101249.59
2022-10-07T18:31:58.959Z,101264.28
2022-10-07T18:34:25.800Z,101261.25
2022-10-07T18:36:56.852Z,101274.44
2022-10-07T18:39:29.863Z,101271.22
2022-10-07T18:41:57.419Z,101274.50
2022-10-07T18:44:26.686Z,101270.34
2022-10-07T18:46:53.436Z,101254.44
2022-10-07T18:49:20.051Z,101248.22
2022-10-07T18:51:47.307Z,101241.88
2022-10-07T18:54:14.147Z,101236.41
2022-10-07T18:56:41.688Z,101234.03
2022-10-07T18:59:09.804Z,101237.88
2022-10-07T19:01:37.341Z,101225.22
2022-10-07T19:04:05.642Z,101230.50
2022-10-07T19:06:35.463Z,101230.91
2022-10-07T19:09:05.873Z,101233.03
2022-10-07T19:11:32.638Z,101231.22
2022-10-07T19:13:59.581Z,101243.94
2022-10-07T19:16:34.477Z,101245.44
2022-10-07T19:19:03.490Z,101245.66
2022-10-07T19:21:30.681Z,101255.56
2022-10-07T19:23:58.753Z,101259.66
2022-10-07T19:26:27.806Z,101269.03
2022-10-07T19:28:54.874Z,101265.22
2022-10-07T19:31:27.154Z,101264.06
2022-10-07T19:34:01.351Z,101268.41
2022-10-07T19:36:33.653Z,101269.38
2022-10-07T19:39:01.170Z,101272.41
2022-10-07T19:41:37.067Z,101258.59
2022-10-07T19:44:04.036Z,101267.09
2022-10-07T19:46:32.361Z,101263.66
2022-10-07T19:49:04.732Z,101257.81
2022-10-07T19:51:34.676Z,101276.00
2022-10-07T19:54:09.786Z,101270.00
2022-10-07T19:56:37.022Z,101273.00
2022-10-07T19:59:13.746Z,101268.34
2022-10-07T20:01:42.547Z,101274.19
2022-10-07T20:04:15.111Z,101286.03
2022-10-07T20:06:42.884Z,101280.88
2022-10-07T20:09:12.730Z,101287.03
2022-10-07T20:11:39.506Z,101287.34
2022-10-07T20:14:06.669Z,101289.69
2022-10-07T20:16:34.614Z,101291.38
2022-10-07T20:19:05.404Z,101286.69
2022-10-07T20:21:34.656Z,101280.19
2022-10-07T20:24:01.598Z,101285.03
2022-10-07T20:26:32.679Z,101272.88
2022-10-07T20:29:01.033Z,101278.88
2022-10-07T20:31:33.573Z,101267.84
2022-10-07T20:34:01.619Z,101273.66
2022-10-07T20:36:33.296Z,101267.69
2022-10-07T20:39:19.537Z,101269.50
2022-10-07T20:42:08.523Z,101279.81
2022-10-07T20:44:36.874Z,101266.75
2022-10-07T20:47:08.421Z,101248.25
2022-10-07T20:49:37.385Z,101252.28
2022-10-07T20:52:17.222Z,101238.44
2022-10-07T20:54:47.553Z,101240.09
2022-10-07T20:57:16.629Z,101235.91
2022-10-07T20:59:47.786Z,101238.22
2022-10-07T21:02:16.949Z,101231.72
2022-10-07T21:04:43.985Z,101233.22
2022-10-07T21:07:10.773Z,101228.25
2022-10-07T21:09:37.560Z,101208.50
2022-10-07T21:12:07.247Z,101206.84
2022-10-07T21:14:35.045Z,101204.69
2022-10-07T21:17:02.270Z,101197.34
2022-10-07T21:19:30.333Z,101198.53
2022-10-07T21:21:57.371Z,101195.72
2022-10-07T21:24:24.289Z,101200.72
2022-10-07T21:26:51.139Z,101195.91
2022-10-07T21:29:19.072Z,101206.59
2022-10-07T21:31:46.124Z,101217.59
2022-10-07T21:34:12.754Z,101210.72
2022-10-07T21:36:41.510Z,101215.56
2022-10-07T21:39:08.084Z,101205.06
2022-10-07T21:41:35.890Z,101203.38
2022-10-07T21:44:04.378Z,101202.34
2022-10-07T21:46:31.948Z,101196.69
2022-10-07T21:48:58.794Z,101169.97
2022-10-07T21:51:32.415Z,101166.81
2022-10-07T21:53:59.110Z,101167.13
2022-10-07T21:56:28.637Z,101165.28
2022-10-07T21:58:57.205Z,101153.13
2022-10-07T22:01:26.641Z,101144.81
2022-10-07T22:04:04.480Z,101138.47
2022-10-07T22:06:50.266Z,101128.59
2022-10-07T22:09:21.193Z,101128.94
2022-10-07T22:11:49.132Z,101124.28
2022-10-07T22:14:17.258Z,101128.09
2022-10-07T22:16:45.037Z,101122.84
2022-10-07T22:19:12.163Z,101117.75
2022-10-07T22:21:40.441Z,101110.41
2022-10-07T22:24:08.415Z,101098.41
2022-10-07T22:26:53.375Z,101091.75
2022-10-07T22:29:21.635Z,101092.53
2022-10-07T22:31:48.683Z,101089.19
2022-10-07T22:34:33.883Z,101081.16
2022-10-07T22:37:00.645Z,101071.63
2022-10-07T22:39:28.745Z,101060.44
2022-10-07T22:41:55.890Z,101048.25
2022-10-07T22:44:22.560Z,101054.78
2022-10-07T22:46:50.044Z,101045.72
2022-10-07T22:49:16.825Z,101010.41
2022-10-07T22:51:43.608Z,100998.53
2022-10-07T22:54:13.784Z,100976.25
2022-10-07T22:56:40.678Z,100958.84
2022-10-07T22:59:08.717Z,100935.53
2022-10-07T23:01:35.844Z,100919.09
2022-10-07T23:04:03.311Z,100917.75
2022-10-07T23:06:34.525Z,100914.25
2022-10-07T23:09:03.824Z,100906.47
2022-10-07T23:11:31.099Z,100907.81
2022-10-07T23:13:58.029Z,100916.06
2022-10-07T23:16:29.778Z,100906.59
2022-10-07T23:18:56.852Z,100909.41
2022-10-07T23:21:28.193Z,100900.78
2022-10-07T23:24:01.721Z,100882.41
2022-10-07T23:26:33.372Z,100869.84
2022-10-07T23:29:01.300Z,100866.31
2022-10-07T23:31:29.206Z,100863.72
2022-10-07T23:33:57.503Z,100865.28
2022-10-07T23:36:25.479Z,100858.56
2022-10-07T23:38:56.756Z,100855.94
2022-10-07T23:41:25.895Z,100862.03
2022-10-07T23:43:54.838Z,100873.13
2022-10-07T23:46:22.757Z,100867.00
2022-10-07T23:48:50.502Z,100863.47
2022-10-07T23:51:21.497Z,100848.44
2022-10-07T23:53:48.484Z,100837.78
2022-10-07T23:56:15.543Z,100826.44
2022-10-07T23:58:44.423Z,100818.81
